Latest Weather Observations for Cummins Airport

IDS60801

Issued at 6:02 pm CDT Friday 19 December 2014 (issued every 30 minutes, with the page automatically refreshed every 10 minutes)

About weather observations | Map of weather stations | Latest weather observations for SA | Other Formats
Station Details ID: 018217 Name: CUMMINS AERO Lat: -34.25 Lon: 135.71 Height: 60.11 m
Data from the previous 72 hours. | See also: Recent months at Cummins Airport
Date/Time
CDT
Temp
°C
App
Temp
°C
Dew
Point
Rel
Hum
%
Delta-T
°C
Wind Press
QNH
hPa
Press
MSL
hPa
Rain
since 9 am
mm
Dir
 
Spd
km/h
Gust
km/h
Spd
kts
Gust
kts
19/06:00pm 23.2 18.6 9.6 42 7.4 SSE 24 33 13 18 1019.4 1019.2 0.0
19/05:30pm 23.0 19.1 9.4 42 7.3 SSE 20 37 11 20 1019.4 1019.2 0.0
19/05:00pm 23.4 18.7 9.4 41 7.6 SSE 24 32 13 17 1019.3 1019.1 0.0
19/04:30pm 24.4 20.4 9.2 38 8.2 S 20 30 11 16 1019.5 1019.3 0.0
19/04:00pm 23.9 18.6 8.3 37 8.3 SSW 26 39 14 21 1019.6 1019.4 0.0
19/03:30pm 24.9 19.6 8.4 35 8.8 SSW 26 35 14 19 1019.9 1019.7 0.0
19/03:00pm 25.1 20.5 8.1 34 9.1 SW 22 37 12 20 1019.9 1019.7 0.0
19/02:30pm 24.8 19.0 7.9 34 9.0 WSW 28 41 15 22 1020.0 1019.8 0.0
19/02:24pm 24.6 19.1 7.7 34 8.9 WSW 26 41 14 22 1020.0 1019.8 0.0
19/02:00pm 23.8 21.0 5.2 30 9.4 WSW 9 17 5 9 1020.4 1020.2 0.0
19/01:30pm 23.3 20.5 5.2 31 9.1 WNW 9 19 5 10 1020.7 1020.5 0.0
19/01:00pm 22.9 19.9 6.2 34 8.5 S 11 17 6 9 1020.9 1020.7 0.0
19/12:30pm 22.0 18.1 5.4 34 8.3 S 15 24 8 13 1021.1 1020.9 0.0
19/12:00pm 23.1 20.7 7.2 36 8.2 SSW 9 20 5 11 1021.3 1021.1 0.0
19/11:30am 20.9 17.7 6.8 40 7.2 S 13 24 7 13 1021.5 1021.4 0.0
19/11:00am 20.2 17.5 7.2 43 6.6 S 11 20 6 11 1021.5 1021.4 0.0
19/10:30am 19.0 16.4 7.8 48 5.7 SSW 11 17 6 9 1021.5 1021.4 0.0
19/10:00am 18.3 16.1 7.7 50 5.4 SE 9 19 5 10 1021.7 1021.6 0.0
19/09:30am 17.8 15.7 8.4 54 4.8 S 9 15 5 8 1021.7 1021.6 0.0
19/09:00am 16.9 14.9 8.6 58 4.3 S 9 13 5 7 1021.5 1021.4 0.0
19/08:30am 14.5 12.9 7.8 64 3.3 WSW 6 6 3 3 1021.3 1021.1 0.0
19/08:00am 11.6 10.5 7.1 74 2.2 W 2 7 1 4 1020.9 1020.7 0.0
19/07:30am 8.4 7.4 5.7 83 1.2 CALM 0 0 0 0 1020.6 1020.4 0.0
19/07:00am 7.3 5.4 4.9 85 1.1 NNE 4 6 2 3 1020.1 1019.9 0.0
19/06:30am 5.1 2.2 2.8 85 0.9 NE 7 7 4 4 1019.7 1019.5 0.0
19/06:00am 5.4 2.8 3.1 85 0.9 NNE 6 7 3 4 1019.4 1019.2 0.0
19/05:30am 5.7 4.3 3.5 86 0.9 CALM 0 0 0 0 1019.1 1018.9 0.0
19/05:00am 6.3 5.0 4.3 87 0.9 CALM 0 6 0 3 1018.9 1018.7 0.0
19/04:30am 6.4 5.1 4.2 86 0.9 CALM 0 0 0 0 1018.8 1018.6 0.0
19/04:00am 7.0 5.8 4.8 86 1.0 CALM 0 0 0 0 1019.0 1018.8 0.0
19/03:30am 7.3 6.3 5.4 88 0.8 CALM 0 0 0 0 1018.9 1018.7 0.0
19/03:00am 7.9 5.8 5.7 86 1.0 NNE 6 7 3 4 1019.0 1018.8 0.0
19/02:30am 7.7 5.8 4.8 82 1.3 SE 4 6 2 3 1019.0 1018.8 0.0
19/02:00am 9.3 6.5 7.1 86 1.0 SSW 11 11 6 6 1019.1 1018.9 0.0
19/01:30am 10.4 8.1 7.5 82 1.4 SSW 9 9 5 5 1019.4 1019.2 0.0
19/01:00am 10.0 7.6 6.9 81 1.5 SSW 9 11 5 6 1019.3 1019.1 0.0
19/12:30am 10.7 8.0 7.2 79 1.7 S 11 13 6 7 1019.3 1019.1 0.0
19/12:00am 11.5 9.1 7.2 75 2.1 SSW 9 11 5 6 1019.3 1019.1 0.0
 
Date/Time
CDT
Temp
°C
App
Temp
°C
Dew
Point
Rel
Hum
%
Delta-T
°C
Wind Press
QNH
hPa
Press
MSL
hPa
Rain
since 9 am
mm
Dir
 
Spd
km/h
Gust
km/h
Spd
kts
Gust
kts
18/11:30pm 12.5 9.5 7.6 72 2.4 S 13 15 7 8 1019.2 1019.0 0.0
18/11:00pm 13.0 10.0 7.9 71 2.5 S 13 15 7 8 1019.0 1018.8 0.0
18/10:30pm 13.6 11.0 7.8 68 2.9 SSW 11 13 6 7 1018.7 1018.5 0.0
18/10:00pm 15.3 12.1 8.3 63 3.5 SSW 15 19 8 10 1018.5 1018.3 0.0
18/09:30pm 16.1 13.2 8.3 60 4.0 SW 13 15 7 8 1018.2 1018.0 0.0
18/09:00pm 15.9 12.2 7.9 59 4.0 SW 17 20 9 11 1017.9 1017.7 0.0
18/08:30pm 16.8 12.5 8.0 56 4.5 SSW 20 26 11 14 1017.7 1017.5 0.0
18/08:00pm 18.0 13.2 7.4 50 5.3 SW 22 30 12 16 1017.4 1017.2 0.0
18/07:30pm 18.5 12.6 7.6 49 5.5 SSW 28 35 15 19 1017.1 1016.9 0.0
18/07:00pm 18.4 12.3 8.1 51 5.3 SSW 30 41 16 22 1016.5 1016.3 0.0
18/06:30pm 20.4 14.9 7.7 44 6.6 SW 26 35 14 19 1016.1 1015.9 0.0
18/06:00pm 20.3 14.1 7.7 44 6.5 SSW 30 39 16 21 1015.7 1015.5 0.0
18/05:30pm 21.2 13.9 7.1 40 7.2 SW 35 48 19 26 1015.4 1015.2 0.0
18/05:00pm 22.0 15.9 8.2 41 7.3 SW 30 46 16 25 1015.2 1015.0 0.0
18/04:30pm 22.0 16.3 8.2 41 7.3 SW 28 41 15 22 1015.1 1014.9 0.0
18/04:00pm 23.3 17.5 7.8 37 8.2 WSW 28 37 15 20 1014.8 1014.6 0.0
18/03:30pm 22.5 17.4 7.5 38 7.8 SW 24 43 13 23 1014.5 1014.3 0.0
18/03:00pm 22.5 16.7 7.9 39 7.7 WSW 28 41 15 22 1014.4 1014.2 0.0
18/02:30pm 22.4 16.1 7.4 38 7.8 SW 30 50 16 27 1014.2 1014.0 0.0
18/02:25pm 21.8 15.3 8.0 41 7.2 WSW 32 50 17 27 1014.2 1014.0 0.0
18/02:00pm 21.9 15.2 7.3 39 7.6 WSW 32 44 17 24 1014.3 1014.1 0.0
18/01:41pm 22.5 16.1 8.6 41 7.4 WSW 32 50 17 27 1014.0 1013.8 0.0
18/01:30pm 22.2 15.8 8.7 42 7.2 WSW 32 41 17 22 1014.0 1013.8 0.0
18/01:00pm 21.5 15.4 9.7 47 6.4 WSW 32 46 17 25 1014.2 1014.0 0.0
18/12:30pm 22.1 15.8 9.6 45 6.8 W 33 43 18 23 1013.9 1013.7 0.0
18/12:00pm 21.3 16.1 10.2 49 6.0 WSW 28 39 15 21 1014.0 1013.8 0.0
18/11:30am 21.6 15.5 9.8 47 6.4 WSW 32 43 17 23 1013.8 1013.6 0.0
18/11:00am 21.3 15.6 11.1 52 5.6 WSW 32 44 17 24 1013.6 1013.4 0.0
18/10:30am 19.5 13.8 11.0 58 4.6 WSW 32 43 17 23 1013.5 1013.3 0.0
18/10:00am 19.7 15.3 11.7 60 4.4 WSW 26 39 14 21 1013.3 1013.1 0.0
18/09:30am 18.2 13.7 12.6 70 3.1 WSW 28 35 15 19 1013.1 1012.9 0.0
18/09:00am 18.4 13.6 11.5 64 3.8 W 28 33 15 18 1012.5 1012.3 0.0
18/08:30am 17.9 14.2 11.5 66 3.5 W 22 30 12 16 1012.3 1012.1 0.0
18/08:00am 16.7 15.5 11.6 72 2.8 WNW 9 19 5 10 1012.2 1012.0 0.0
18/07:30am 12.5 12.2 8.8 78 1.9 CALM 0 7 0 4 1011.9 1011.7 0.0
18/07:00am 10.5 9.9 7.6 82 1.4 CALM 0 0 0 0 1011.6 1011.4 0.0
18/06:30am 8.3 6.1 6.1 86 1.0 NNE 7 7 4 4 1011.3 1011.1 0.0
18/06:00am 8.0 5.7 5.5 84 1.1 NE 7 9 4 5 1010.7 1010.6 0.0
18/05:30am 8.7 6.6 6.7 87 0.9 NNE 7 7 4 4 1010.3 1010.2 0.0
18/05:00am 8.5 5.9 6.1 85 1.1 N 9 13 5 7 1009.9 1009.8 0.0
18/04:30am 8.8 6.8 6.1 83 1.2 N 6 7 3 4 1009.9 1009.8 0.0
18/04:00am 9.0 6.4 6.3 83 1.2 NNE 9 11 5 6 1009.8 1009.7 0.0
18/03:30am 8.2 5.4 5.0 80 1.4 NNE 9 9 5 5 1009.8 1009.7 0.0
18/03:00am 8.2 5.9 4.8 79 1.5 NNE 6 7 3 4 1009.9 1009.8 0.0
18/02:30am 8.7 7.3 5.3 79 1.5 NNE 2 7 1 4 1009.7 1009.6 0.0
18/02:00am 9.1 7.5 4.7 74 2.0 N 2 7 1 4 1009.7 1009.6 0.0
18/01:30am 9.5 7.2 5.7 77 1.7 NNE 7 9 4 5 1009.8 1009.7 0.0
18/01:00am 9.2 6.4 5.0 75 1.9 NNE 9 11 5 6 1009.5 1009.4 0.0
18/12:30am 9.3 6.8 4.5 72 2.1 NNE 7 9 4 5 1009.7 1009.6 0.0
18/12:00am 10.4 9.4 5.4 71 2.3 CALM 0 0 0 0 1009.7 1009.6 0.0
 
Date/Time
CDT
Temp
°C
App
Temp
°C
Dew
Point
Rel
Hum
%
Delta-T
°C
Wind Press
QNH
hPa
Press
MSL
hPa
Rain
since 9 am
mm
Dir
 
Spd
km/h
Gust
km/h
Spd
kts
Gust
kts
17/11:30pm 10.9 9.1 5.4 69 2.5 NNE 4 6 2 3 1009.8 1009.7 0.0
17/11:00pm 11.3 9.2 6.0 70 2.5 NE 6 7 3 4 1010.0 1009.9 0.0
17/10:30pm 13.0 10.8 6.4 64 3.2 WNW 7 9 4 5 1009.9 1009.8 0.0
17/10:00pm 13.7 11.8 7.7 67 3.0 W 7 9 4 5 1009.6 1009.5 0.0
17/09:30pm 14.5 12.2 7.5 63 3.5 W 9 13 5 7 1009.8 1009.7 0.0
17/09:00pm 15.8 12.8 7.6 58 4.1 WSW 13 19 7 10 1009.7 1009.6 0.0
17/08:30pm 16.9 13.1 7.5 54 4.7 WSW 17 20 9 11 1009.6 1009.5 0.0
17/08:00pm 17.9 12.7 7.3 50 5.3 WSW 24 30 13 16 1009.4 1009.3 0.0
17/07:30pm 18.6 13.4 7.4 48 5.7 WSW 24 30 13 16 1008.9 1008.8 0.0
17/07:00pm 19.4 12.8 7.8 47 6.0 WSW 32 39 17 21 1008.7 1008.6 0.0
17/06:30pm 20.2 13.9 7.6 44 6.5 W 30 41 16 22 1008.2 1008.1 0.0
17/06:00pm 20.6 14.3 7.6 43 6.7 W 30 41 16 22 1008.0 1007.9 0.0
17/05:30pm 21.2 14.9 7.4 41 7.1 W 30 39 16 21 1007.9 1007.8 0.0
17/05:00pm 22.2 15.5 7.2 38 7.8 W 32 39 17 21 1007.7 1007.6 0.0
17/04:30pm 23.8 18.5 7.0 34 8.8 W 24 37 13 20 1007.6 1007.5 0.0
17/04:00pm 23.8 19.7 6.1 32 9.1 WSW 17 26 9 14 1007.9 1007.8 0.0
17/03:30pm 23.9 19.7 5.8 31 9.2 WNW 17 32 9 17 1008.1 1008.0 0.0
17/03:00pm 24.1 19.5 5.5 30 9.5 W 19 26 10 14 1008.3 1008.2 0.0
17/02:30pm 23.0 19.8 5.0 31 9.0 NNE 11 19 6 10 1008.5 1008.4 0.0
17/02:00pm 23.7 21.0 5.6 31 9.2 NNW 9 19 5 10 1009.0 1008.9 0.0
17/01:30pm 22.1 18.1 5.1 33 8.5 WNW 15 28 8 15 1009.4 1009.3 0.0
17/01:00pm 22.5 19.4 5.4 33 8.6 WSW 11 20 6 11 1009.8 1009.7 0.0
17/12:30pm 21.1 17.5 5.1 35 7.9 NW 13 22 7 12 1010.4 1010.3 0.0
17/12:00pm 20.7 17.1 5.1 36 7.7 NW 13 20 7 11 1010.7 1010.6 0.0
17/11:30am 19.9 16.0 5.5 39 7.1 NW 15 22 8 12 1011.1 1010.9 0.0
17/11:00am 19.4 16.4 5.8 41 6.7 WSW 11 19 6 10 1011.4 1011.2 0.0
17/10:30am 19.0 16.7 5.5 41 6.6 NE 7 13 4 7 1011.6 1011.4 0.0
17/10:00am 17.6 14.5 5.5 45 5.9 WSW 11 17 6 9 1011.6 1011.4 0.0
17/09:30am 17.3 15.1 6.2 48 5.5 SSE 7 11 4 6 1011.9 1011.7 0.0
17/09:00am 16.5 14.5 6.1 50 5.1 SSE 6 11 3 6 1012.0 1011.8 0.0
17/08:30am 16.1 14.3 7.3 56 4.4 ESE 6 7 3 4 1012.1 1011.9 0.0
17/08:00am 13.1 11.5 6.5 64 3.2 ENE 4 6 2 3 1012.2 1012.0 0.0
17/07:30am 10.5 9.5 5.7 72 2.2 CALM 0 2 0 1 1012.1 1011.9 0.0
17/07:00am 7.8 5.8 4.6 80 1.4 NE 4 6 2 3 1011.9 1011.7 0.0
17/06:30am 5.7 4.2 3.0 83 1.1 CALM 0 0 0 0 1011.6 1011.4 0.0
17/06:00am 5.3 3.7 2.7 83 1.1 CALM 0 0 0 0 1011.3 1011.1 0.0
17/05:30am 5.5 3.2 2.8 83 1.1 NE 4 6 2 3 1010.8 1010.7 0.0
17/05:00am 5.4 3.1 2.8 83 1.1 NNE 4 9 2 5 1010.7 1010.6 0.0
17/04:30am 5.5 3.9 2.3 80 1.3 CALM 0 0 0 0 1010.6 1010.5 0.0
17/04:00am 6.7 5.3 3.5 80 1.4 CALM 0 0 0 0 1010.4 1010.3 0.0
17/03:30am 6.5 5.1 3.5 81 1.3 CALM 0 0 0 0 1010.2 1010.1 0.0
17/03:00am 7.1 5.8 3.9 80 1.4 CALM 0 0 0 0 1010.3 1010.2 0.0
17/02:30am 7.1 5.7 3.5 78 1.5 CALM 0 0 0 0 1010.3 1010.2 0.0
17/02:00am 7.8 6.4 3.7 75 1.8 CALM 0 0 0 0 1010.4 1010.3 0.0
17/01:30am 8.5 7.2 4.3 75 1.8 CALM 0 0 0 0 1010.6 1010.5 0.0
17/01:00am 8.1 6.8 3.9 75 1.8 CALM 0 0 0 0 1011.0 1010.8 0.0
17/12:30am 8.5 7.2 3.9 73 2.0 CALM 0 0 0 0 1011.1 1010.9 0.0
17/12:00am 9.6 8.4 4.8 72 2.2 CALM 0 0 0 0 1011.1 1010.9 0.0
 
Date/Time
CDT
Temp
°C
App
Temp
°C
Dew
Point
Rel
Hum
%
Delta-T
°C
Wind Press
QNH
hPa
Press
MSL
hPa
Rain
since 9 am
mm
Dir
 
Spd
km/h
Gust
km/h
Spd
kts
Gust
kts
16/11:30pm 9.8 8.6 4.8 71 2.3 CALM 0 0 0 0 1011.1 1010.9 0.0
16/11:00pm 11.7 9.5 6.0 68 2.7 SSW 7 9 4 5 1011.3 1011.1 0.0
16/10:30pm 12.4 10.5 6.5 67 2.8 SSW 6 7 3 4 1011.3 1011.1 0.0
16/10:00pm 12.8 10.2 6.2 64 3.1 SW 9 11 5 6 1011.2 1011.0 0.0
16/09:30pm 14.2 10.6 6.6 60 3.7 SW 15 17 8 9 1011.2 1011.0 0.0
16/09:00pm 14.9 10.5 6.5 57 4.1 SSW 19 22 10 12 1010.8 1010.7 0.0
16/08:30pm 15.9 10.5 6.3 53 4.7 SW 24 30 13 16 1010.3 1010.2 0.0
16/08:00pm 16.7 10.8 7.4 54 4.7 SW 28 39 15 21 1010.0 1009.9 0.0
16/07:30pm 17.9 11.7 6.1 46 5.8 SW 28 37 15 20 1009.7 1009.6 0.0
16/07:00pm 18.7 11.9 5.2 41 6.6 SW 30 37 16 20 1009.2 1009.1 0.0
16/06:30pm 18.9 11.5 3.9 37 7.1 SW 32 44 17 24 1008.8 1008.7 0.0

Other Formats:

Comma delimited format used in spreadsheet applications
http://www.bom.gov.au/fwo/IDS60801/IDS60801.95663.axf

JavaScript Object Notation format (JSON) in row-major order
http://www.bom.gov.au/fwo/IDS60801/IDS60801.95663.json